Latest Weather Observations for North Head

IDN60801

Issued at 9:32 pm EDT Monday 27 March 2017 (issued every 30 minutes, with the page automatically refreshed every 10 minutes)

About weather observations | Map of weather stations | Latest weather observations for NSW | Other Formats
Station Details ID: 066197 Name: NORTH HEAD Lat: -33.82 Lon: 151.30 Height: 90.0 m
Data from the previous 72 hours. | See also: Recent months for locations in New South Wales
Date/Time
EDT
Temp
°C
App
Temp
°C
Dew
Point
°C
Rel
Hum
%
Delta-T
°C
Wind Press
QNH
hPa
Press
MSL
hPa
Rain since
9am
mm
Dir  Spd
km/h
Gust
km/h
Spd
kts
Gust
kts
27/09:30pm - - - - - NNE 24 37 13 20 - - -
27/09:00pm - - - - - NNE 24 35 13 19 - - -
27/08:30pm - - - - - NNE 26 37 14 20 - - -
27/08:03pm - - - - - NNE 28 48 15 26 - - -
27/08:00pm - - - - - NNE 28 43 15 23 - - -
27/07:30pm - - - - - NNE 24 35 13 19 - - -
27/07:00pm - - - - - NNE 24 37 13 20 - - -
27/06:30pm - - - - - NNE 22 35 12 19 - - -
27/06:00pm - - - - - NNE 22 33 12 18 - - -
27/05:30pm - - - - - NNE 26 37 14 20 - - -
27/05:00pm - - - - - NNE 24 35 13 19 - - -
27/04:30pm - - - - - NNE 22 35 12 19 - - -
27/04:00pm - - - - - NNE 20 32 11 17 - - -
27/03:30pm - - - - - NNE 20 32 11 17 - - -
27/03:00pm - - - - - NE 20 32 11 17 - - -
27/02:30pm - - - - - NE 19 32 10 17 - - -
27/02:00pm - - - - - NE 17 30 9 16 - - -
27/01:30pm - - - - - NE 17 28 9 15 - - -
27/01:00pm - - - - - NNE 17 30 9 16 - - -
27/12:30pm - - - - - NE 17 28 9 15 - - -
27/12:00pm - - - - - NNE 15 22 8 12 - - -
27/11:30am - - - - - NNE 15 24 8 13 - - -
27/11:00am - - - - - NNE 13 19 7 10 - - -
27/10:30am - - - - - NNE 11 17 6 9 - - -
27/10:00am - - - - - N 11 17 6 9 - - -
27/09:30am - - - - - N 9 15 5 8 - - -
27/09:00am - - - - - N 7 11 4 6 - - -
27/08:30am - - - - - NNW 6 7 3 4 - - -
27/08:00am - - - - - NNW 6 7 3 4 - - -
27/07:30am - - - - - N 6 9 3 5 - - -
27/07:00am - - - - - N 9 9 5 5 - - -
27/06:30am - - - - - N 9 11 5 6 - - -
27/06:00am - - - - - NNW 7 7 4 4 - - -
27/05:30am - - - - - NW 6 7 3 4 - - -
27/05:00am - - - - - WNW 6 7 3 4 - - -
27/04:30am - - - - - NNW 7 9 4 5 - - -
27/04:00am - - - - - NW 7 9 4 5 - - -
27/03:30am - - - - - NW 6 6 3 3 - - -
27/03:00am - - - - - NNW 7 9 4 5 - - -
27/02:30am - - - - - NNW 7 11 4 6 - - -
27/02:00am - - - - - N 7 11 4 6 - - -
27/01:30am - - - - - NNW 9 13 5 7 - - -
27/01:00am - - - - - N 9 13 5 7 - - -
27/12:30am - - - - - NNE 13 20 7 11 - - -
27/12:00am - - - - - NNE 13 20 7 11 - - -
 
Date/Time
EDT
Temp
°C
App
Temp
°C
Dew
Point
°C
Rel
Hum
%
Delta-T
°C
Wind Press
QNH
hPa
Press
MSL
hPa
Rain since
9am
mm
Dir  Spd
km/h
Gust
km/h
Spd
kts
Gust
kts
26/11:30pm - - - - - NNE 13 19 7 10 - - -
26/11:00pm - - - - - NNE 13 20 7 11 - - -
26/10:30pm - - - - - NE 13 22 7 12 - - -
26/10:00pm - - - - - NNE 13 20 7 11 - - -
26/09:30pm - - - - - NE 13 20 7 11 - - -
26/09:00pm - - - - - NE 15 22 8 12 - - -
26/08:30pm - - - - - NE 15 22 8 12 - - -
26/08:00pm - - - - - NE 17 24 9 13 - - -
26/07:30pm - - - - - NE 15 20 8 11 - - -
26/07:00pm - - - - - NE 15 22 8 12 - - -
26/06:30pm - - - - - ENE 13 20 7 11 - - -
26/06:00pm - - - - - NE 15 22 8 12 - - -
26/05:30pm - - - - - ENE 13 22 7 12 - - -
26/05:00pm - - - - - ENE 17 24 9 13 - - -
26/04:30pm - - - - - ENE 11 20 6 11 - - -
26/04:00pm - - - - - ENE 13 19 7 10 - - -
26/03:30pm - - - - - ENE 11 17 6 9 - - -
26/03:00pm - - - - - ENE 11 17 6 9 - - -
26/02:30pm - - - - - ENE 11 15 6 8 - - -
26/02:00pm - - - - - ENE 9 15 5 8 - - -
26/01:30pm - - - - - ENE 7 13 4 7 - - -
26/01:00pm - - - - - E 7 13 4 7 - - -
26/12:30pm - - - - - E 6 9 3 5 - - -
26/12:00pm - - - - - SE 7 9 4 5 - - -
26/11:30am - - - - - SE 7 9 4 5 - - -
26/11:00am - - - - - SSW 6 7 3 4 - - -
26/10:30am - - - - - WSW 6 9 3 5 - - -
26/10:00am - - - - - W 7 9 4 5 - - -
26/09:30am - - - - - WNW 7 13 4 7 - - -
26/09:00am - - - - - WNW 7 9 4 5 - - -
26/08:30am - - - - - W 7 11 4 6 - - -
26/08:00am - - - - - W 7 9 4 5 - - -
26/07:30am - - - - - W 9 11 5 6 - - -
26/07:00am - - - - - W 9 11 5 6 - - -
26/06:30am - - - - - W 9 11 5 6 - - -
26/06:00am - - - - - W 7 9 4 5 - - -
26/05:30am - - - - - W 7 9 4 5 - - -
26/05:00am - - - - - W 7 7 4 4 - - -
26/04:30am - - - - - W 6 6 3 3 - - -
26/04:00am - - - - - WSW 7 9 4 5 - - -
26/03:30am - - - - - WSW 7 7 4 4 - - -
26/03:00am - - - - - W 7 9 4 5 - - -
26/02:30am - - - - - W 7 9 4 5 - - -
26/02:00am - - - - - WSW 7 7 4 4 - - -
26/01:30am - - - - - WSW 7 7 4 4 - - -
26/01:00am - - - - - WNW 4 4 2 2 - - -
26/12:30am - - - - - NNW 7 11 4 6 - - -
26/12:00am - - - - - NNW 7 9 4 5 - - -
 
Date/Time
EDT
Temp
°C
App
Temp
°C
Dew
Point
°C
Rel
Hum
%
Delta-T
°C
Wind Press
QNH
hPa
Press
MSL
hPa
Rain since
9am
mm
Dir  Spd
km/h
Gust
km/h
Spd
kts
Gust
kts
25/11:30pm - - - - - NNW 7 11 4 6 - - -
25/11:00pm - - - - - NNW 7 9 4 5 - - -
25/10:30pm - - - - - N 6 7 3 4 - - -
25/10:00pm - - - - - N 7 11 4 6 - - -
25/09:30pm - - - - - N 11 15 6 8 - - -
25/09:00pm - - - - - N 9 13 5 7 - - -
25/08:30pm - - - - - NNE 9 15 5 8 - - -
25/08:00pm - - - - - NNE 9 15 5 8 - - -
25/07:30pm - - - - - NNE 9 15 5 8 - - -
25/07:00pm - - - - - NNE 13 19 7 10 - - -
25/06:30pm - - - - - NE 13 20 7 11 - - -
25/06:00pm - - - - - NE 13 20 7 11 - - -
25/05:30pm - - - - - NE 11 15 6 8 - - -
25/05:00pm - - - - - NE 9 15 5 8 - - -
25/04:30pm - - - - - NE 9 13 5 7 - - -
25/04:00pm - - - - - NNE 9 15 5 8 - - -
25/03:30pm - - - - - NNE 11 17 6 9 - - -
25/03:00pm - - - - - NNE 13 20 7 11 - - -
25/02:30pm - - - - - NNE 13 20 7 11 - - -
25/02:00pm - - - - - NE 13 20 7 11 - - -
25/01:30pm - - - - - NNE 13 20 7 11 - - -
25/01:00pm - - - - - NNE 11 17 6 9 - - -
25/12:30pm - - - - - NE 7 15 4 8 - - -
25/12:00pm - - - - - NE 7 15 4 8 - - -
25/11:30am - - - - - NE 11 17 6 9 - - -
25/11:00am - - - - - NNE 7 11 4 6 - - -
25/10:30am - - - - - NNE 7 11 4 6 - - -
25/10:00am - - - - - NW 4 7 2 4 - - -
25/09:30am - - - - - W 6 7 3 4 - - -
25/09:00am - - - - - WNW 4 6 2 3 - - -
25/08:30am - - - - - WNW 2 4 1 2 - - -
25/08:00am - - - - - CALM 0 2 0 1 - - -
25/07:30am - - - - - W 2 4 1 2 - - -
25/07:00am - - - - - WNW 4 4 2 2 - - -
25/06:30am - - - - - W 6 6 3 3 - - -
25/06:00am - - - - - W 7 9 4 5 - - -
25/05:30am - - - - - W 7 7 4 4 - - -
25/05:00am - - - - - WNW 6 7 3 4 - - -
25/04:30am - - - - - W 6 7 3 4 - - -
25/04:00am - - - - - ESE 4 6 2 3 - - -
25/03:30am - - - - - NE 4 9 2 5 - - -
25/03:00am - - - - - E 7 11 4 6 - - -
25/02:30am - - - - - E 9 13 5 7 - - -
25/02:00am - - - - - E 9 15 5 8 - - -
25/01:30am - - - - - E 11 17 6 9 - - -
25/01:00am - - - - - ESE 15 19 8 10 - - -
25/12:30am - - - - - E 11 15 6 8 - - -
25/12:00am - - - - - ESE 11 15 6 8 - - -
 
Date/Time
EDT
Temp
°C
App
Temp
°C
Dew
Point
°C
Rel
Hum
%
Delta-T
°C
Wind Press
QNH
hPa
Press
MSL
hPa
Rain since
9am
mm
Dir  Spd
km/h
Gust
km/h
Spd
kts
Gust
kts
24/11:30pm - - - - - ESE 13 24 7 13 - - -
24/11:00pm - - - - - ESE 15 20 8 11 - - -
24/10:30pm - - - - - ESE 17 26 9 14 - - -
24/10:00pm - - - - - ESE 15 20 8 11 - - -

Other Formats:

Comma delimited format used in spreadsheet applications
http://www.bom.gov.au/fwo/IDN60801/IDN60801.95768.axf

JavaScript Object Notation format (JSON) in row-major order
http://www.bom.gov.au/fwo/IDN60801/IDN60801.95768.json